createdAt,value
2023-10-06T00:00:42.523Z,3.80
2023-10-06T00:03:15.472Z,3.63
2023-10-06T00:05:43.011Z,4.43
2023-10-06T00:08:18.354Z,4.17
2023-10-06T00:10:53.225Z,4.03
2023-10-06T00:13:25.132Z,4.07
2023-10-06T00:15:52.443Z,4.13
2023-10-06T00:18:20.858Z,4.00
2023-10-06T00:20:50.652Z,4.27
2023-10-06T00:23:22.680Z,4.40
2023-10-06T00:25:56.328Z,4.27
2023-10-06T00:28:27.383Z,3.90
2023-10-06T00:30:58.771Z,4.00
2023-10-06T00:33:33.109Z,3.90
2023-10-06T00:36:16.757Z,4.23
2023-10-06T00:38:52.206Z,4.20
2023-10-06T00:41:21.788Z,3.67
2023-10-06T00:43:50.193Z,4.10
2023-10-06T00:46:19.793Z,4.30
2023-10-06T00:48:55.085Z,4.30
2023-10-06T00:51:24.347Z,3.90
2023-10-06T00:53:54.051Z,3.97
2023-10-06T00:56:24.727Z,4.13
2023-10-06T00:58:52.242Z,4.00
2023-10-06T01:01:19.257Z,4.30
2023-10-06T01:03:49.993Z,3.53
2023-10-06T01:06:18.884Z,3.93
2023-10-06T01:08:54.081Z,4.93
2023-10-06T01:11:27.010Z,4.57
2023-10-06T01:13:57.529Z,4.27
2023-10-06T01:16:32.688Z,4.47
2023-10-06T01:19:23.131Z,4.10
2023-10-06T01:21:54.210Z,4.37
2023-10-06T01:24:27.633Z,4.40
2023-10-06T01:27:12.423Z,3.67
2023-10-06T01:29:39.458Z,3.80
2023-10-06T01:32:07.113Z,4.13
2023-10-06T01:34:39.163Z,4.07
2023-10-06T01:37:12.673Z,3.80
2023-10-06T01:39:40.335Z,4.30
2023-10-06T01:42:09.497Z,4.43
2023-10-06T01:44:36.528Z,3.83
2023-10-06T01:47:07.122Z,3.87
2023-10-06T01:49:37.608Z,4.17
2023-10-06T01:52:10.295Z,4.33
2023-10-06T01:54:37.571Z,4.30
2023-10-06T01:57:12.493Z,4.30
2023-10-06T01:59:39.249Z,3.83
2023-10-06T02:02:09.303Z,3.73
2023-10-06T02:04:46.150Z,4.30
2023-10-06T02:07:13.211Z,4.17
2023-10-06T02:09:39.895Z,3.87
2023-10-06T02:12:07.611Z,4.00
2023-10-06T02:14:34.322Z,4.30
2023-10-06T02:17:07.306Z,4.20
2023-10-06T02:19:35.348Z,4.10
2023-10-06T02:22:02.245Z,4.27
2023-10-06T02:24:28.923Z,4.20
2023-10-06T02:27:02.417Z,4.17
2023-10-06T02:29:30.100Z,3.77
2023-10-06T02:32:07.338Z,4.00
2023-10-06T02:34:37.820Z,3.83
2023-10-06T02:37:05.616Z,3.83
2023-10-06T02:39:35.240Z,3.67
2023-10-06T02:42:03.448Z,4.20
2023-10-06T02:44:31.684Z,4.40
2023-10-06T02:47:00.970Z,3.87
2023-10-06T02:49:36.516Z,4.17
2023-10-06T02:52:22.609Z,3.80
2023-10-06T02:55:05.341Z,4.20
2023-10-06T02:57:40.070Z,4.53
2023-10-06T03:00:25.851Z,4.50
2023-10-06T03:02:57.382Z,4.03
2023-10-06T03:05:33.369Z,3.90
2023-10-06T03:08:09.786Z,3.77
2023-10-06T03:10:44.020Z,4.00
2023-10-06T03:13:18.296Z,4.20
2023-10-06T03:15:48.055Z,3.67
2023-10-06T03:18:16.961Z,4.23
2023-10-06T03:21:14.482Z,4.43
2023-10-06T03:23:45.287Z,4.00
2023-10-06T03:26:22.929Z,4.17
2023-10-06T03:28:53.868Z,4.07
2023-10-06T03:31:21.180Z,4.37
2023-10-06T03:33:49.218Z,3.90
2023-10-06T03:36:27.470Z,3.67
2023-10-06T03:38:57.250Z,4.17
2023-10-06T03:41:32.240Z,4.00
2023-10-06T03:44:02.091Z,3.80
2023-10-06T03:46:36.733Z,4.20
2023-10-06T03:49:06.801Z,4.23
2023-10-06T03:51:40.509Z,4.10
2023-10-06T03:54:08.971Z,3.93
2023-10-06T03:56:35.675Z,4.60
2023-10-06T03:59:03.891Z,3.80
2023-10-06T04:01:33.057Z,4.07
2023-10-06T04:04:00.099Z,4.10
2023-10-06T04:06:27.985Z,4.33
2023-10-06T04:08:54.990Z,3.93
2023-10-06T04:11:21.646Z,4.30
2023-10-06T04:13:48.827Z,3.90
2023-10-06T04:16:15.708Z,4.27
2023-10-06T04:18:48.571Z,4.63
2023-10-06T04:21:15.726Z,4.23
2023-10-06T04:23:45.127Z,3.90
2023-10-06T04:26:16.126Z,4.43
2023-10-06T04:28:48.412Z,3.83
2023-10-06T04:31:16.965Z,4.70
2023-10-06T04:33:44.849Z,4.10
2023-10-06T04:36:21.595Z,4.13
2023-10-06T04:38:48.602Z,4.10
2023-10-06T04:41:15.878Z,4.27
2023-10-06T04:43:46.221Z,4.10
2023-10-06T04:46:16.518Z,3.80
2023-10-06T04:48:43.398Z,4.20
2023-10-06T04:51:10.760Z,4.63
2023-10-06T04:53:37.821Z,4.53
2023-10-06T04:56:06.299Z,4.33
2023-10-06T04:58:33.930Z,4.57
2023-10-06T05:01:03.727Z,4.43
2023-10-06T05:03:44.550Z,4.60
2023-10-06T05:06:21.787Z,4.47
2023-10-06T05:08:49.566Z,4.20
2023-10-06T05:11:18.307Z,4.73
2023-10-06T05:13:45.558Z,3.87
2023-10-06T05:16:12.938Z,4.23
2023-10-06T05:18:40.185Z,3.70
2023-10-06T05:21:07.901Z,4.57
2023-10-06T05:23:36.248Z,4.70
2023-10-06T05:26:11.573Z,4.47
2023-10-06T05:28:38.588Z,4.33
2023-10-06T05:31:08.330Z,4.30
2023-10-06T05:33:35.378Z,4.70
2023-10-06T05:36:21.062Z,4.07
2023-10-06T05:38:48.272Z,4.23
2023-10-06T05:41:16.271Z,4.30
2023-10-06T05:43:44.416Z,4.50
2023-10-06T05:46:12.542Z,4.50
2023-10-06T05:48:39.760Z,4.20
2023-10-06T05:51:10.115Z,4.53
2023-10-06T05:53:44.593Z,4.17
2023-10-06T05:56:11.730Z,4.33
2023-10-06T05:58:39.193Z,4.50
2023-10-06T06:01:07.419Z,4.40
2023-10-06T06:03:37.271Z,4.70
2023-10-06T06:06:09.990Z,4.73
2023-10-06T06:08:39.183Z,4.73
2023-10-06T06:11:07.203Z,5.00
2023-10-06T06:13:37.191Z,4.87
2023-10-06T06:16:06.605Z,4.40
2023-10-06T06:18:34.953Z,4.53
2023-10-06T06:21:04.656Z,4.90
2023-10-06T06:23:34.766Z,4.57
2023-10-06T06:26:01.749Z,4.40
2023-10-06T06:28:29.396Z,4.57
2023-10-06T06:30:56.189Z,4.20
2023-10-06T06:33:26.801Z,4.10
2023-10-06T06:35:53.548Z,4.70
2023-10-06T06:38:20.404Z,4.53
2023-10-06T06:40:47.432Z,4.40
2023-10-06T06:43:14.235Z,4.47
2023-10-06T06:45:41.356Z,4.83
2023-10-06T06:48:15.235Z,4.47
2023-10-06T06:50:46.034Z,4.90
2023-10-06T06:53:13.477Z,4.80
2023-10-06T06:55:42.947Z,4.83
2023-10-06T06:58:12.467Z,5.30
2023-10-06T07:00:42.856Z,4.50
2023-10-06T07:03:12.010Z,4.40
2023-10-06T07:05:40.137Z,4.63
2023-10-06T07:08:07.926Z,4.70
2023-10-06T07:10:39.864Z,5.30
2023-10-06T07:13:06.857Z,5.70
2023-10-06T07:15:34.920Z,5.17
2023-10-06T07:18:02.030Z,5.37
2023-10-06T07:20:31.284Z,4.33
2023-10-06T07:23:02.855Z,5.50
2023-10-06T07:25:30.122Z,5.03
2023-10-06T07:27:58.904Z,5.73
2023-10-06T07:30:28.646Z,5.13
2023-10-06T07:32:56.022Z,5.70
2023-10-06T07:35:45.348Z,5.60
2023-10-06T07:38:12.488Z,5.57
2023-10-06T07:40:39.766Z,5.90
2023-10-06T07:43:08.444Z,5.60
2023-10-06T07:45:35.657Z,6.00
2023-10-06T07:48:02.571Z,5.80
2023-10-06T07:50:30.283Z,5.57
2023-10-06T07:52:58.286Z,5.80
2023-10-06T07:55:25.041Z,6.77
2023-10-06T07:57:52.340Z,6.03
2023-10-06T08:00:33.597Z,6.03
2023-10-06T08:03:01.676Z,6.30
2023-10-06T08:05:30.961Z,6.87
2023-10-06T08:07:59.802Z,6.60
2023-10-06T08:10:27.430Z,6.30
2023-10-06T08:13:03.988Z,6.30
2023-10-06T08:15:33.464Z,6.40
2023-10-06T08:18:00.899Z,6.07
2023-10-06T08:20:28.965Z,5.63
2023-10-06T08:22:57.814Z,5.30
2023-10-06T08:25:26.348Z,5.10
2023-10-06T08:27:54.023Z,5.97
2023-10-06T08:30:21.449Z,5.10
2023-10-06T08:32:51.136Z,5.53
2023-10-06T08:35:18.009Z,5.90
2023-10-06T08:37:46.073Z,5.33
2023-10-06T08:40:18.526Z,5.97
2023-10-06T08:42:49.629Z,5.93
2023-10-06T08:45:22.065Z,6.03
2023-10-06T08:50:24.166Z,6.03
2023-10-06T08:52:55.301Z,5.73
2023-10-06T08:55:24.146Z,5.30
2023-10-06T08:57:52.674Z,6.13
2023-10-06T09:00:25.111Z,5.23
2023-10-06T09:03:21.381Z,5.67
2023-10-06T09:05:48.344Z,4.93
2023-10-06T09:08:16.675Z,5.37
2023-10-06T09:10:52.318Z,5.43
2023-10-06T09:13:21.946Z,5.83
2023-10-06T09:16:00.709Z,5.27
2023-10-06T09:18:28.595Z,5.23
2023-10-06T09:20:58.191Z,4.90
2023-10-06T09:23:37.729Z,4.73
2023-10-06T09:26:06.278Z,5.43
2023-10-06T09:28:33.450Z,4.93
2023-10-06T09:31:06.385Z,5.83
2023-10-06T09:33:39.459Z,6.07
2023-10-06T09:36:08.595Z,4.93
2023-10-06T09:38:40.497Z,5.10
2023-10-06T09:41:09.067Z,4.47
2023-10-06T09:43:39.549Z,4.63
2023-10-06T09:46:17.712Z,4.93
2023-10-06T09:48:44.675Z,5.03
2023-10-06T09:51:13.688Z,5.43
2023-10-06T09:53:45.167Z,4.50
2023-10-06T09:56:14.005Z,4.53
2023-10-06T09:58:49.639Z,4.40
2023-10-06T10:01:17.032Z,4.10
2023-10-06T10:03:44.612Z,4.73
2023-10-06T10:06:14.184Z,3.80
2023-10-06T10:08:42.511Z,4.10
2023-10-06T10:11:17.329Z,4.40
2023-10-06T10:14:14.086Z,5.50
2023-10-06T10:17:03.211Z,4.50
2023-10-06T10:19:30.396Z,4.60
2023-10-06T10:21:59.326Z,4.97
2023-10-06T10:26:56.828Z,4.53
2023-10-06T10:29:25.361Z,3.57
2023-10-06T10:32:01.479Z,3.70
2023-10-06T10:34:35.393Z,3.90
2023-10-06T10:37:07.136Z,4.00
2023-10-06T10:39:57.071Z,3.97
2023-10-06T10:42:41.112Z,3.53
2023-10-06T10:45:35.573Z,3.70
2023-10-06T10:48:14.810Z,3.43
2023-10-06T10:50:54.114Z,3.67
2023-10-06T10:53:24.077Z,3.53
2023-10-06T10:55:53.915Z,3.30
2023-10-06T10:58:45.454Z,3.67
2023-10-06T11:01:25.567Z,3.23
2023-10-06T11:04:14.051Z,3.57
2023-10-06T11:06:41.223Z,3.27
2023-10-06T11:09:41.155Z,3.27
2023-10-06T11:12:25.631Z,2.80
2023-10-06T11:14:54.429Z,3.20
2023-10-06T11:17:27.990Z,3.10
2023-10-06T11:20:15.004Z,3.57
2023-10-06T11:22:52.194Z,3.50
2023-10-06T11:25:19.710Z,3.53
2023-10-06T11:28:01.555Z,3.60
2023-10-06T11:30:29.820Z,3.33
2023-10-06T11:33:01.450Z,3.77
2023-10-06T11:35:28.325Z,3.47
2023-10-06T11:37:56.329Z,2.93
2023-10-06T11:40:25.759Z,3.13
2023-10-06T11:42:52.937Z,3.23
2023-10-06T11:45:25.265Z,3.70
2023-10-06T11:47:52.906Z,3.43
2023-10-06T11:50:27.241Z,3.53
2023-10-06T11:52:54.300Z,3.70
2023-10-06T11:55:30.973Z,4.03
2023-10-06T11:58:01.676Z,4.03
2023-10-06T12:00:57.923Z,3.90
2023-10-06T12:03:43.607Z,4.03
2023-10-06T12:06:13.660Z,3.77
2023-10-06T12:08:51.776Z,3.30
2023-10-06T12:11:20.488Z,3.67
2023-10-06T12:13:47.162Z,3.33
2023-10-06T12:16:17.744Z,4.00
2023-10-06T12:18:45.485Z,3.60
2023-10-06T12:21:15.142Z,3.80
2023-10-06T12:23:43.435Z,3.70
2023-10-06T12:26:10.329Z,3.73
2023-10-06T12:28:39.979Z,3.90
2023-10-06T12:31:07.389Z,3.67
2023-10-06T12:33:34.612Z,4.47
2023-10-06T12:36:05.077Z,4.50
2023-10-06T12:38:31.801Z,3.70
2023-10-06T12:40:58.564Z,4.63
2023-10-06T12:43:25.765Z,4.10
2023-10-06T12:45:52.570Z,4.70
2023-10-06T12:48:20.935Z,4.37
2023-10-06T12:50:48.379Z,4.90
2023-10-06T12:53:15.267Z,4.33
2023-10-06T12:55:44.852Z,4.07
2023-10-06T12:58:16.217Z,4.30
2023-10-06T13:00:43.335Z,4.30
2023-10-06T13:03:16.804Z,4.67
2023-10-06T13:05:47.675Z,4.23
2023-10-06T13:08:22.060Z,3.60
2023-10-06T13:10:49.567Z,4.20
2023-10-06T13:13:19.357Z,4.00
2023-10-06T13:15:46.762Z,4.73
2023-10-06T13:18:14.563Z,4.37
2023-10-06T13:20:42.018Z,4.87
2023-10-06T13:23:08.876Z,5.20
2023-10-06T13:25:38.205Z,4.40
2023-10-06T13:28:05.574Z,4.70
2023-10-06T13:30:34.124Z,4.77
2023-10-06T13:33:01.233Z,4.83
2023-10-06T13:35:28.271Z,5.13
2023-10-06T13:37:55.159Z,4.60
2023-10-06T13:40:22.059Z,5.37
2023-10-06T13:42:49.515Z,5.10
2023-10-06T13:45:23.976Z,5.80
2023-10-06T13:47:55.813Z,5.40
2023-10-06T13:50:28.707Z,4.73
2023-10-06T13:52:56.572Z,5.37
2023-10-06T13:55:25.440Z,5.07
2023-10-06T13:57:53.856Z,4.83
2023-10-06T14:00:41.840Z,4.83
2023-10-06T14:03:14.904Z,5.10
2023-10-06T14:05:43.951Z,5.87
2023-10-06T14:08:15.202Z,5.60
2023-10-06T14:10:43.616Z,5.23
2023-10-06T14:13:18.072Z,5.37
2023-10-06T14:16:01.343Z,4.73
2023-10-06T14:18:33.449Z,4.93
2023-10-06T14:21:04.541Z,4.47
2023-10-06T14:23:37.262Z,5.03
2023-10-06T14:26:07.887Z,5.30
2023-10-06T14:28:34.717Z,4.77
2023-10-06T14:31:17.369Z,5.37
2023-10-06T14:33:49.155Z,5.23
2023-10-06T14:36:16.157Z,5.80
2023-10-06T14:38:42.841Z,5.37
2023-10-06T14:41:20.808Z,5.40
2023-10-06T14:44:11.144Z,5.13
2023-10-06T14:46:41.064Z,5.60
2023-10-06T14:49:14.180Z,4.97
2023-10-06T14:51:42.773Z,5.30
2023-10-06T14:54:11.860Z,4.80
2023-10-06T14:56:39.667Z,4.60
2023-10-06T14:59:10.016Z,4.50
2023-10-06T15:01:41.234Z,5.17
2023-10-06T15:04:13.901Z,4.97
2023-10-06T15:06:41.475Z,5.17
2023-10-06T15:09:19.060Z,4.33
2023-10-06T15:11:47.336Z,5.37
2023-10-06T15:14:15.089Z,4.83
2023-10-06T15:16:43.415Z,4.60
2023-10-06T15:19:12.314Z,4.60
2023-10-06T15:21:43.065Z,4.50
2023-10-06T15:24:15.574Z,4.53
2023-10-06T15:26:50.891Z,4.50
2023-10-06T15:29:21.001Z,4.50
2023-10-06T15:31:49.804Z,4.70
2023-10-06T15:34:17.237Z,5.23
2023-10-06T15:36:44.388Z,5.00
2023-10-06T15:39:18.540Z,4.43
2023-10-06T15:41:46.609Z,5.00
2023-10-06T15:44:14.640Z,4.80
2023-10-06T15:46:42.106Z,4.60
2023-10-06T15:49:14.133Z,4.50
2023-10-06T15:51:47.515Z,4.95
2023-10-06T15:54:14.360Z,4.90
2023-10-06T15:56:41.636Z,5.13
2023-10-06T15:59:15.198Z,4.68
2023-10-06T16:01:44.063Z,4.70
2023-10-06T16:04:14.178Z,5.00
2023-10-06T16:06:42.681Z,4.80
2023-10-06T16:09:11.074Z,5.03
2023-10-06T16:11:41.252Z,5.00
2023-10-06T16:14:08.231Z,5.07
2023-10-06T16:16:35.901Z,5.43
2023-10-06T16:19:06.927Z,4.82
2023-10-06T16:21:34.166Z,4.80
2023-10-06T16:24:04.669Z,4.67
2023-10-06T16:26:31.681Z,4.43
2023-10-06T16:29:02.285Z,5.57
2023-10-06T16:31:30.479Z,5.20
2023-10-06T16:33:58.406Z,5.27
2023-10-06T16:36:26.217Z,4.70
2023-10-06T16:38:53.305Z,4.67
2023-10-06T16:41:23.779Z,4.93
2023-10-06T16:43:54.900Z,5.17
2023-10-06T16:46:21.829Z,4.87
2023-10-06T16:48:49.023Z,4.90
2023-10-06T16:51:15.930Z,5.07
2023-10-06T16:53:42.885Z,4.77
2023-10-06T16:56:13.028Z,5.00
2023-10-06T16:58:42.241Z,4.80
2023-10-06T17:01:09.241Z,4.67
2023-10-06T17:03:37.346Z,4.60
2023-10-06T17:06:06.135Z,4.47
2023-10-06T17:08:33.038Z,4.57
2023-10-06T17:11:15.455Z,5.07
2023-10-06T17:13:42.707Z,4.73
2023-10-06T17:16:14.221Z,4.57
2023-10-06T17:18:42.771Z,4.40
2023-10-06T17:21:13.290Z,5.10
2023-10-06T17:23:40.202Z,4.07
2023-10-06T17:26:09.244Z,4.47
2023-10-06T17:28:40.068Z,4.80
2023-10-06T17:31:12.193Z,5.10
2023-10-06T17:33:38.940Z,4.23
2023-10-06T17:36:09.031Z,4.77
2023-10-06T17:38:36.331Z,4.67
2023-10-06T17:41:03.212Z,4.63
2023-10-06T17:43:29.895Z,4.70
2023-10-06T17:45:58.869Z,4.27
2023-10-06T17:48:26.571Z,5.73
2023-10-06T17:50:54.041Z,5.50
2023-10-06T17:53:21.140Z,4.87
2023-10-06T17:55:54.653Z,5.07
2023-10-06T17:58:21.864Z,5.10
2023-10-06T18:00:49.795Z,4.97
2023-10-06T18:03:20.183Z,4.97
2023-10-06T18:05:53.812Z,5.27
2023-10-06T18:08:21.579Z,5.23
2023-10-06T18:10:48.884Z,5.00
2023-10-06T18:13:16.683Z,4.80
2023-10-06T18:15:45.263Z,6.03
2023-10-06T18:18:12.955Z,5.40
2023-10-06T18:20:44.171Z,6.00
2023-10-06T18:23:12.451Z,5.33
2023-10-06T18:25:40.244Z,5.60
2023-10-06T18:28:08.327Z,5.80
2023-10-06T18:30:38.426Z,5.60
2023-10-06T18:33:07.062Z,6.57
2023-10-06T18:35:37.254Z,5.33
2023-10-06T18:38:04.725Z,5.30
2023-10-06T18:40:33.588Z,5.40
2023-10-06T18:43:00.982Z,6.00
2023-10-06T18:45:30.622Z,6.07
2023-10-06T18:47:57.434Z,6.00
2023-10-06T18:50:24.385Z,6.53
2023-10-06T18:52:52.961Z,6.03
2023-10-06T18:55:23.611Z,7.10
2023-10-06T18:57:51.851Z,5.97
2023-10-06T19:00:18.760Z,6.70
2023-10-06T19:02:48.240Z,5.90
2023-10-06T19:05:15.842Z,6.60
2023-10-06T19:07:46.028Z,6.30
2023-10-06T19:10:14.797Z,5.97
2023-10-06T19:12:41.916Z,6.47
2023-10-06T19:15:09.423Z,6.10
2023-10-06T19:17:40.940Z,5.93
2023-10-06T19:20:08.430Z,6.37
2023-10-06T19:22:38.963Z,6.10
2023-10-06T19:25:10.698Z,6.37
2023-10-06T19:27:39.073Z,6.20
2023-10-06T19:30:07.150Z,6.33
2023-10-06T19:32:34.851Z,5.67
2023-10-06T19:35:08.118Z,6.70
2023-10-06T19:37:38.904Z,6.50
2023-10-06T19:40:10.358Z,6.63
2023-10-06T19:42:38.171Z,7.27
2023-10-06T19:45:08.002Z,7.57
2023-10-06T19:47:35.017Z,6.37
2023-10-06T19:50:12.942Z,6.97
2023-10-06T19:52:42.983Z,6.90
2023-10-06T19:55:11.180Z,6.80
2023-10-06T19:57:38.266Z,6.73
2023-10-06T20:00:12.131Z,6.60
2023-10-06T20:02:41.830Z,6.93
2023-10-06T20:05:11.241Z,6.90
2023-10-06T20:07:38.002Z,7.00
2023-10-06T20:10:05.127Z,6.57
2023-10-06T20:12:31.914Z,6.87
2023-10-06T20:14:58.704Z,6.90
2023-10-06T20:17:25.772Z,7.13
2023-10-06T20:19:52.643Z,7.70
2023-10-06T20:22:19.653Z,7.83
2023-10-06T20:24:46.452Z,7.83
2023-10-06T20:27:13.187Z,8.23
2023-10-06T20:29:40.408Z,8.60
2023-10-06T20:32:11.288Z,7.83
2023-10-06T20:34:39.033Z,8.10
2023-10-06T20:37:05.941Z,7.90
2023-10-06T20:39:32.994Z,7.63
2023-10-06T20:42:00.551Z,8.20
2023-10-06T20:44:28.918Z,7.40
2023-10-06T20:46:56.072Z,7.60
2023-10-06T20:49:25.892Z,7.60
2023-10-06T20:51:52.709Z,7.73
2023-10-06T20:54:19.553Z,7.73
2023-10-06T20:56:46.418Z,7.60
2023-10-06T20:59:14.469Z,7.60
2023-10-06T21:01:43.033Z,7.63
2023-10-06T21:04:10.141Z,7.03
2023-10-06T21:06:37.736Z,6.73
2023-10-06T21:09:07.923Z,7.73
2023-10-06T21:11:36.365Z,7.83
2023-10-06T21:14:03.293Z,7.33
2023-10-06T21:16:30.117Z,7.60
2023-10-06T21:18:56.897Z,7.57
2023-10-06T21:21:23.737Z,7.43
2023-10-06T21:23:50.852Z,7.93
2023-10-06T21:26:17.577Z,7.50
2023-10-06T21:28:44.285Z,6.70
2023-10-06T21:31:11.344Z,6.33
2023-10-06T21:33:38.097Z,7.73
2023-10-06T21:36:05.202Z,7.80
2023-10-06T21:38:32.792Z,7.60
2023-10-06T21:41:00.215Z,7.53
2023-10-06T21:43:27.664Z,7.63
2023-10-06T21:45:54.619Z,7.80
2023-10-06T21:48:21.558Z,7.83
2023-10-06T21:50:49.513Z,7.70
2023-10-06T21:53:16.888Z,7.33
2023-10-06T21:55:46.324Z,7.17
2023-10-06T21:58:13.071Z,7.10
2023-10-06T22:00:46.820Z,7.50
2023-10-06T22:03:14.164Z,7.57
2023-10-06T22:05:43.806Z,7.90
2023-10-06T22:08:10.826Z,7.50
2023-10-06T22:10:37.717Z,7.40
2023-10-06T22:13:04.639Z,8.10
2023-10-06T22:15:31.673Z,7.43
2023-10-06T22:18:01.699Z,7.97
2023-10-06T22:20:32.283Z,7.43
2023-10-06T22:23:00.049Z,8.03
2023-10-06T22:25:29.924Z,7.50
2023-10-06T22:27:56.736Z,7.53
2023-10-06T22:30:24.448Z,7.33
2023-10-06T22:32:51.340Z,7.53
2023-10-06T22:35:18.320Z,6.90
2023-10-06T22:37:45.059Z,8.43
2023-10-06T22:40:17.673Z,8.20
2023-10-06T22:42:48.250Z,8.20
2023-10-06T22:45:16.527Z,8.53
2023-10-06T22:47:44.362Z,8.30
2023-10-06T22:50:12.914Z,8.40
2023-10-06T22:52:41.415Z,8.77
2023-10-06T22:55:09.892Z,7.97
2023-10-06T22:57:36.606Z,8.03
2023-10-06T23:00:06.387Z,7.50
2023-10-06T23:02:33.241Z,7.80
2023-10-06T23:05:00.320Z,7.77
2023-10-06T23:07:28.512Z,8.33
2023-10-06T23:09:57.545Z,7.93
2023-10-06T23:12:25.998Z,7.93
2023-10-06T23:14:52.962Z,8.37
2023-10-06T23:17:19.899Z,7.97
2023-10-06T23:19:46.849Z,8.30
2023-10-06T23:22:13.609Z,8.00
2023-10-06T23:24:49.846Z,7.77
2023-10-06T23:27:21.023Z,7.83
2023-10-06T23:29:49.444Z,7.90
2023-10-06T23:32:16.810Z,8.53
2023-10-06T23:34:43.752Z,8.43
2023-10-06T23:37:13.567Z,8.30
2023-10-06T23:39:41.384Z,8.20
2023-10-06T23:42:10.357Z,8.60
2023-10-06T23:44:39.299Z,8.27
2023-10-06T23:47:11.183Z,7.70
2023-10-06T23:49:42.381Z,7.63
2023-10-06T23:52:13.765Z,8.40
2023-10-06T23:54:41.418Z,7.37
2023-10-06T23:57:28.108Z,7.77
2023-10-06T23:59:56.200Z,8.37
